Weather at Quambatook Airport

Public forecast

Using degrees Celsius for public forecast. Weather courtesy of forecast.io.

Closest aviation weather report (METAR) to Quambatook Airport

Closest report is Melbourne International Airport, 126.4 nm (234.1 km) SSE.

2023/05/28 11:30 (retrieved 39 minutes ago)

YMML 281130Z 36008KT CAVOK 10/07 Q1013

Closest aviation forecast (TAF) to Quambatook Airport

Closest forecast is Melbourne International Airport, 126.4 nm (234.1 km) SSE.

2023/05/28 12:51 (retrieved 0 seconds ago)

TAF YMML 281134Z 2812/2918 35010KT 9999 SCT040 FM282300 30010KT 9999 FEW025 SCT035 FM290200 27012KT 9999 SCT030 BKN045 FM290900 33010KT 9999 SCT035